createdAt,value
2023-01-05T00:01:54.190Z,12.07
2023-01-05T00:04:22.731Z,11.75
2023-01-05T00:06:52.459Z,12.25
2023-01-05T00:09:20.629Z,12.18
2023-01-05T00:12:07.605Z,12.10
2023-01-05T00:14:54.671Z,11.69
2023-01-05T00:17:44.013Z,11.84
2023-01-05T00:20:35.164Z,12.09
2023-01-05T00:23:05.231Z,12.54
2023-01-05T00:25:37.639Z,12.66
2023-01-05T00:28:07.504Z,12.57
2023-01-05T00:30:40.365Z,12.60
2023-01-05T00:34:29.122Z,12.25
2023-01-05T00:36:57.895Z,12.24
2023-01-05T01:33:32.153Z,11.64
2023-01-05T01:36:04.780Z,11.99
2023-01-05T01:38:33.147Z,11.81
2023-01-05T01:41:01.613Z,11.98
2023-01-05T01:43:48.776Z,12.04
2023-01-05T01:46:22.981Z,12.34
2023-01-05T01:48:59.152Z,12.23
2023-01-05T01:51:41.507Z,12.02
2023-01-05T01:54:13.416Z,12.09
2023-01-05T01:56:51.314Z,11.85
2023-01-05T01:59:19.552Z,11.99
2023-01-05T02:01:51.775Z,11.56
2023-01-05T02:04:21.473Z,11.88
2023-01-05T02:06:50.482Z,12.09
2023-01-05T02:09:18.474Z,12.10
2023-01-05T02:12:15.888Z,12.20
2023-01-05T02:15:22.226Z,12.04
2023-01-05T02:18:01.054Z,12.11
2023-01-05T02:20:53.724Z,12.03
2023-01-05T02:23:43.931Z,11.93
2023-01-05T02:26:32.090Z,11.66
2023-01-05T02:29:02.273Z,11.88
2023-01-05T02:31:55.473Z,11.91
2023-01-05T02:34:26.053Z,11.93
2023-01-05T02:37:01.048Z,11.81
2023-01-05T02:39:39.177Z,11.80
2023-01-05T02:42:27.329Z,11.92
2023-01-05T02:44:56.033Z,11.90
2023-01-05T02:47:29.940Z,11.83
2023-01-05T02:50:12.173Z,11.80
2023-01-05T02:53:01.363Z,11.98
2023-01-05T02:55:50.663Z,11.63
2023-01-05T02:58:31.929Z,11.74
2023-01-05T03:01:06.435Z,11.87
2023-01-05T03:03:34.805Z,11.65
2023-01-05T03:06:21.055Z,11.69
2023-01-05T03:08:53.757Z,11.61
2023-01-05T03:11:50.055Z,11.53
2023-01-05T03:14:30.511Z,11.37
2023-01-05T03:17:02.310Z,11.49
2023-01-05T03:19:36.898Z,11.47
2023-01-05T03:22:35.124Z,11.28
2023-01-05T03:25:27.149Z,11.10
2023-01-05T03:28:17.524Z,11.09
2023-01-05T03:31:28.982Z,11.38
2023-01-05T03:34:34.675Z,11.21
2023-01-05T03:37:08.421Z,11.08
2023-01-05T03:39:41.091Z,11.04
2023-01-05T03:42:12.124Z,11.12
2023-01-05T03:44:42.021Z,11.08
2023-01-05T03:47:14.879Z,11.07
2023-01-05T03:49:46.699Z,10.86
2023-01-05T03:52:14.826Z,10.79
2023-01-05T03:54:44.123Z,10.75
2023-01-05T03:57:12.282Z,11.03
2023-01-05T03:59:40.695Z,10.96
2023-01-05T04:02:09.396Z,11.19
2023-01-05T04:04:38.372Z,11.18
2023-01-05T04:07:10.202Z,11.42
2023-01-05T04:09:38.783Z,11.51
2023-01-05T04:12:07.575Z,11.60
2023-01-05T04:14:40.981Z,11.69
2023-01-05T04:17:09.394Z,11.48
2023-01-05T04:19:39.702Z,11.69
2023-01-05T04:22:09.083Z,11.53
2023-01-05T04:24:37.392Z,11.51
2023-01-05T04:27:05.569Z,11.42
2023-01-05T04:29:33.832Z,11.61
2023-01-05T04:32:02.275Z,11.62
2023-01-05T04:34:30.693Z,11.37
2023-01-05T04:37:00.695Z,11.50
2023-01-05T04:39:32.924Z,11.54
2023-01-05T04:42:02.556Z,11.81
2023-01-05T04:44:32.522Z,11.42
2023-01-05T04:47:04.280Z,11.63
2023-01-05T04:49:39.159Z,11.62
2023-01-05T04:52:10.287Z,11.55
2023-01-05T04:54:40.566Z,11.52
2023-01-05T04:57:09.955Z,11.64
2023-01-05T04:59:40.052Z,11.49
2023-01-05T05:02:09.513Z,11.81
2023-01-05T05:04:37.978Z,11.80
2023-01-05T05:07:06.081Z,11.76
2023-01-05T05:09:35.547Z,11.53
2023-01-05T05:12:04.672Z,11.61
2023-01-05T05:14:36.131Z,11.85
2023-01-05T05:17:04.129Z,11.75
2023-01-05T05:19:32.394Z,11.57
2023-01-05T05:22:01.245Z,11.67
2023-01-05T05:24:30.138Z,11.55
2023-01-05T05:26:58.061Z,11.72
2023-01-05T05:29:26.313Z,11.81
2023-01-05T05:31:54.480Z,11.86
2023-01-05T05:34:22.902Z,12.03
2023-01-05T05:36:50.880Z,11.89
2023-01-05T05:39:19.185Z,11.74
2023-01-05T05:41:47.205Z,11.58
2023-01-05T05:44:15.513Z,11.54
2023-01-05T05:46:43.515Z,11.58
2023-01-05T05:49:11.845Z,11.63
2023-01-05T05:51:39.921Z,11.88
2023-01-05T05:54:08.211Z,11.60
2023-01-05T05:56:36.102Z,12.02
2023-01-05T05:59:05.477Z,11.73
2023-01-05T06:01:33.544Z,11.53
2023-01-05T06:04:02.899Z,11.75
2023-01-05T06:06:30.715Z,11.67
2023-01-05T06:08:58.973Z,11.74
2023-01-05T06:11:26.972Z,11.86
2023-01-05T06:13:55.463Z,11.77
2023-01-05T06:16:23.488Z,11.74
2023-01-05T06:18:52.885Z,11.78
2023-01-05T06:21:22.325Z,11.90
2023-01-05T06:23:51.206Z,11.96
2023-01-05T06:26:19.197Z,11.79
2023-01-05T06:28:47.646Z,11.98
2023-01-05T06:31:15.573Z,12.07
2023-01-05T06:33:43.951Z,11.85
2023-01-05T06:36:11.868Z,12.09
2023-01-05T06:38:41.454Z,11.84
2023-01-05T06:41:09.470Z,11.61
2023-01-05T06:43:38.854Z,11.46
2023-01-05T06:46:06.849Z,11.48
2023-01-05T06:48:35.201Z,11.68
2023-01-05T06:51:03.861Z,11.61
2023-01-05T06:53:32.361Z,11.72
2023-01-05T06:56:00.252Z,11.68
2023-01-05T06:58:29.792Z,11.65
2023-01-05T07:00:57.766Z,11.69
2023-01-05T07:03:26.259Z,11.76
2023-01-05T07:05:54.163Z,11.79
2023-01-05T07:08:23.564Z,11.93
2023-01-05T07:10:51.434Z,11.87
2023-01-05T07:13:19.707Z,11.93
2023-01-05T07:15:47.705Z,11.80
2023-01-05T07:18:16.052Z,11.79
2023-01-05T07:20:43.911Z,11.83
2023-01-05T07:23:12.153Z,11.73
2023-01-05T07:25:40.111Z,11.78
2023-01-05T07:28:08.372Z,11.74
2023-01-05T07:30:36.432Z,11.77
2023-01-05T07:33:05.262Z,11.82
2023-01-05T07:35:33.294Z,11.77
2023-01-05T07:38:02.697Z,11.69
2023-01-05T07:40:30.647Z,11.75
2023-01-05T07:42:59.489Z,11.84
2023-01-05T07:45:27.693Z,11.93
2023-01-05T07:47:57.253Z,11.92
2023-01-05T07:50:25.234Z,12.17
2023-01-05T07:52:53.482Z,11.96
2023-01-05T07:55:21.554Z,11.95
2023-01-05T07:57:49.874Z,12.03
2023-01-05T08:00:18.113Z,12.13
2023-01-05T08:02:46.475Z,12.28
2023-01-05T08:05:14.551Z,12.22
2023-01-05T08:07:42.924Z,12.33
2023-01-05T08:10:29.097Z,12.21
2023-01-05T08:13:26.913Z,12.13
2023-01-05T08:15:56.871Z,12.22
2023-01-05T08:18:25.102Z,12.16
2023-01-05T08:20:58.848Z,11.97
2023-01-05T08:23:28.711Z,12.03
2023-01-05T08:25:57.451Z,12.14
2023-01-05T08:28:31.427Z,12.26
2023-01-05T08:31:16.532Z,12.38
2023-01-05T08:33:46.656Z,12.09
2023-01-05T08:36:19.966Z,11.97
2023-01-05T08:38:51.329Z,12.17
2023-01-05T08:41:25.242Z,12.24
2023-01-05T08:44:12.084Z,12.28
2023-01-05T08:46:40.645Z,12.23
2023-01-05T08:49:09.930Z,12.17
2023-01-05T08:51:38.796Z,12.31
2023-01-05T08:54:06.772Z,12.08
2023-01-05T08:56:39.016Z,12.14
2023-01-05T08:59:07.993Z,12.19
2023-01-05T09:01:37.242Z,12.24
2023-01-05T09:04:05.716Z,11.98
2023-01-05T09:06:35.464Z,11.95
2023-01-05T09:09:04.279Z,11.98
2023-01-05T09:11:35.210Z,12.18
2023-01-05T09:14:03.618Z,12.25
2023-01-05T09:17:05.090Z,12.40
2023-01-05T09:19:23.366Z,12.63
2023-01-05T09:21:52.738Z,12.62
2023-01-05T09:24:20.660Z,12.52
2023-01-05T09:26:50.626Z,12.83
2023-01-05T09:29:18.533Z,12.83
2023-01-05T09:31:46.907Z,12.60
2023-01-05T09:34:16.093Z,12.87
2023-01-05T09:36:44.315Z,12.98
2023-01-05T09:39:12.442Z,12.99
2023-01-05T09:42:06.139Z,13.05
2023-01-05T09:44:40.054Z,12.98
2023-01-05T09:47:15.044Z,12.99
2023-01-05T09:49:43.631Z,12.50
2023-01-05T09:52:14.089Z,12.43
2023-01-05T09:54:42.276Z,12.93
2023-01-05T09:57:24.109Z,13.12
2023-01-05T09:59:54.524Z,13.34
2023-01-05T10:02:24.254Z,13.08
2023-01-05T10:04:54.650Z,13.09
2023-01-05T10:07:41.121Z,13.01
2023-01-05T10:10:31.426Z,13.05
2023-01-05T10:13:05.798Z,13.75
2023-01-05T10:15:40.807Z,13.69
2023-01-05T10:18:15.904Z,13.30
2023-01-05T10:21:09.422Z,13.10
2023-01-05T10:24:07.317Z,13.44
2023-01-05T10:27:23.158Z,13.41
2023-01-05T10:29:49.122Z,13.46
2023-01-05T10:32:23.076Z,13.39
2023-01-05T10:34:58.047Z,13.61
2023-01-05T10:37:47.474Z,13.37
2023-01-05T10:40:40.316Z,13.51
2023-01-05T10:43:37.264Z,13.49
2023-01-05T10:49:00.534Z,13.24
2023-01-05T10:51:34.153Z,13.12
2023-01-05T10:54:03.785Z,13.14
2023-01-05T10:56:33.463Z,13.05
2023-01-05T10:59:15.420Z,13.41
2023-01-05T11:01:47.317Z,13.44
2023-01-05T11:04:33.150Z,13.59
2023-01-05T11:07:07.466Z,13.84
2023-01-05T11:09:41.394Z,14.39
2023-01-05T11:12:19.873Z,14.44
2023-01-05T11:14:58.080Z,14.21
2023-01-05T11:17:29.085Z,14.31
2023-01-05T11:19:58.291Z,13.79
2023-01-05T11:22:30.483Z,14.01
2023-01-05T11:25:14.031Z,14.36
2023-01-05T11:27:42.353Z,14.57
2023-01-05T11:30:16.429Z,14.35
2023-01-05T11:32:46.004Z,14.29
2023-01-05T11:35:24.673Z,14.40
2023-01-05T11:37:53.064Z,14.36
2023-01-05T11:40:24.022Z,14.20
2023-01-05T11:42:52.396Z,13.82
2023-01-05T11:45:25.079Z,13.94
2023-01-05T11:48:05.548Z,13.69
2023-01-05T11:50:49.544Z,13.46
2023-01-05T11:53:34.307Z,13.15
2023-01-05T11:56:04.012Z,13.35
2023-01-05T11:58:35.216Z,13.53
2023-01-05T12:01:22.301Z,13.15
2023-01-05T12:04:10.033Z,13.68
2023-01-05T12:07:04.917Z,13.63
2023-01-05T12:09:45.682Z,13.65
2023-01-05T12:12:26.359Z,13.37
2023-01-05T12:15:12.925Z,13.13
2023-01-05T12:17:40.751Z,13.26
2023-01-05T12:20:49.543Z,13.71
2023-01-05T12:23:45.246Z,14.12
2023-01-05T12:26:28.453Z,14.17
2023-01-05T12:35:25.120Z,16.02
2023-01-05T12:37:57.627Z,15.07
2023-01-05T12:40:56.335Z,15.47
2023-01-05T12:44:06.180Z,15.73
2023-01-05T12:47:18.865Z,16.21
2023-01-05T12:50:23.939Z,17.06
2023-01-05T12:53:01.936Z,16.33
2023-01-05T12:55:39.376Z,17.82
2023-01-05T12:58:25.166Z,16.90
2023-01-05T13:00:58.083Z,16.87
2023-01-05T13:03:34.148Z,18.39
2023-01-05T13:06:18.480Z,19.13
2023-01-05T13:08:50.827Z,19.42
2023-01-05T13:11:28.084Z,18.40
2023-01-05T13:14:04.082Z,17.74
2023-01-05T13:16:49.176Z,18.06
2023-01-05T13:19:48.550Z,17.29
2023-01-05T13:22:24.859Z,17.45
2023-01-05T13:24:58.776Z,17.45
2023-01-05T13:27:29.452Z,17.53
2023-01-05T13:30:01.242Z,19.01
2023-01-05T13:32:54.847Z,19.83
2023-01-05T13:35:49.514Z,19.25
2023-01-05T13:38:32.663Z,20.03
2023-01-05T13:41:08.695Z,20.39
2023-01-05T13:43:42.722Z,20.07
2023-01-05T13:46:27.005Z,20.23
2023-01-05T13:49:33.254Z,20.33
2023-01-05T13:52:04.154Z,20.35
2023-01-05T13:55:01.061Z,20.68
2023-01-05T13:57:43.245Z,19.81
2023-01-05T14:00:25.357Z,18.82
2023-01-05T14:03:08.019Z,18.13
2023-01-05T14:05:51.255Z,18.37
2023-01-05T14:08:35.441Z,19.30
2023-01-05T14:11:17.381Z,21.06
2023-01-05T14:13:55.148Z,21.19
2023-01-05T14:16:35.872Z,20.04
2023-01-05T14:19:37.400Z,21.76
2023-01-05T14:22:25.098Z,22.13
2023-01-05T14:24:54.334Z,20.91
2023-01-05T14:27:31.938Z,21.10
2023-01-05T14:30:01.193Z,21.70
2023-01-05T14:32:34.773Z,21.84
2023-01-05T14:35:09.790Z,22.92
2023-01-05T14:37:52.694Z,22.24
2023-01-05T14:40:40.007Z,22.63
2023-01-05T14:43:21.785Z,22.72
2023-01-05T14:46:10.974Z,21.77
2023-01-05T14:48:44.052Z,21.45
2023-01-05T14:51:19.210Z,21.34
2023-01-05T14:53:50.268Z,20.38
2023-01-05T14:56:25.986Z,20.20
2023-01-05T14:58:57.106Z,19.72
2023-01-05T15:01:47.366Z,19.31
2023-01-05T15:04:27.731Z,19.37
2023-01-05T15:07:14.732Z,19.55
2023-01-05T15:10:10.693Z,19.41
2023-01-05T15:12:45.635Z,19.11
2023-01-05T15:15:28.823Z,18.29
2023-01-05T15:18:36.037Z,17.83
2023-01-05T15:21:48.885Z,17.32
2023-01-05T15:24:43.424Z,16.85
2023-01-05T15:27:37.062Z,16.40
2023-01-05T15:30:26.310Z,16.05
2023-01-05T15:33:35.892Z,16.05
2023-01-05T15:36:06.358Z,15.76
2023-01-05T15:38:45.478Z,15.67
2023-01-05T15:41:16.941Z,15.56
2023-01-05T15:43:45.352Z,15.36
2023-01-05T15:46:21.213Z,15.53
2023-01-05T15:48:53.660Z,15.18
2023-01-05T15:51:28.815Z,15.21
2023-01-05T15:53:59.689Z,14.91
2023-01-05T15:56:40.957Z,15.14
2023-01-05T15:59:35.160Z,15.12
2023-01-05T16:02:18.194Z,14.84
2023-01-05T16:04:46.637Z,14.83
2023-01-05T16:07:14.665Z,14.74
2023-01-05T16:09:47.671Z,14.54
2023-01-05T16:12:26.651Z,14.39
2023-01-05T16:15:01.910Z,14.42
2023-01-05T16:17:34.463Z,14.26
2023-01-05T16:20:25.028Z,14.23
2023-01-05T16:23:13.251Z,14.28
2023-01-05T16:25:49.511Z,14.34
2023-01-05T16:28:20.764Z,14.21
2023-01-05T16:30:49.957Z,14.22
2023-01-05T16:33:28.295Z,14.34
2023-01-05T16:36:19.600Z,14.26
2023-01-05T16:38:48.066Z,14.21
2023-01-05T16:41:21.943Z,14.03
2023-01-05T16:43:51.822Z,13.95
2023-01-05T16:46:21.257Z,13.84
2023-01-05T16:48:55.412Z,13.80
2023-01-05T16:51:32.581Z,13.92
2023-01-05T16:54:23.505Z,13.92
2023-01-05T16:56:59.915Z,13.77
2023-01-05T16:59:35.682Z,13.69
2023-01-05T17:02:03.950Z,14.02
2023-01-05T17:04:32.021Z,13.97
2023-01-05T17:07:01.212Z,13.88
2023-01-05T17:09:32.099Z,13.60
2023-01-05T17:12:00.430Z,13.56
2023-01-05T17:14:28.942Z,13.86
2023-01-05T17:17:00.451Z,13.72
2023-01-05T17:19:29.159Z,13.86
2023-01-05T17:22:04.913Z,13.71
2023-01-05T17:24:34.495Z,13.74
2023-01-05T17:27:02.954Z,13.74
2023-01-05T17:29:32.913Z,13.73
2023-01-05T17:32:01.145Z,13.60
2023-01-05T17:34:29.407Z,13.47
2023-01-05T17:37:00.152Z,13.42
2023-01-05T17:39:28.580Z,13.54
2023-01-05T17:42:17.034Z,13.30
2023-01-05T17:44:45.466Z,13.47
2023-01-05T17:47:15.034Z,13.36
2023-01-05T17:49:44.134Z,13.39
2023-01-05T17:52:13.759Z,13.37
2023-01-05T17:54:43.474Z,13.41
2023-01-05T17:57:14.118Z,13.38
2023-01-05T18:02:15.846Z,13.48
2023-01-05T18:04:43.826Z,13.59
2023-01-05T18:07:13.337Z,13.36
2023-01-05T18:09:41.311Z,13.14
2023-01-05T18:12:24.767Z,13.31
2023-01-05T18:14:53.966Z,13.23
2023-01-05T18:17:22.407Z,13.19
2023-01-05T18:19:50.944Z,13.11
2023-01-05T18:22:19.307Z,13.18
2023-01-05T18:24:48.594Z,13.26
2023-01-05T18:27:16.764Z,13.18
2023-01-05T18:29:45.638Z,13.10
2023-01-05T18:32:13.658Z,13.04
2023-01-05T18:34:42.890Z,13.20
2023-01-05T18:37:21.416Z,13.15
2023-01-05T18:39:51.140Z,12.99
2023-01-05T18:42:19.175Z,13.04
2023-01-05T18:44:47.526Z,13.03
2023-01-05T18:47:15.474Z,12.95
2023-01-05T18:49:43.689Z,13.04
2023-01-05T18:52:11.847Z,13.05
2023-01-05T18:54:40.049Z,12.87
2023-01-05T18:57:07.999Z,13.01
2023-01-05T18:59:36.347Z,13.13
2023-01-05T19:02:04.564Z,13.03
2023-01-05T19:04:33.017Z,12.97
2023-01-05T19:07:01.101Z,12.85
2023-01-05T19:09:29.587Z,13.07
2023-01-05T19:11:57.712Z,13.01
2023-01-05T19:14:26.095Z,12.87
2023-01-05T19:16:54.451Z,12.86
2023-01-05T19:19:22.835Z,12.84
2023-01-05T19:21:52.415Z,12.96
2023-01-05T19:24:23.077Z,12.88
2023-01-05T19:26:51.521Z,12.85
2023-01-05T19:29:20.668Z,12.88
2023-01-05T19:31:49.398Z,12.88
2023-01-05T19:34:19.773Z,13.11
2023-01-05T19:36:48.383Z,13.10
2023-01-05T19:39:21.985Z,12.97
2023-01-05T19:41:54.591Z,12.99
2023-01-05T19:44:23.245Z,12.93
2023-01-05T19:46:54.375Z,12.87
2023-01-05T19:49:26.192Z,12.99
2023-01-05T19:51:54.748Z,13.01
2023-01-05T19:54:25.756Z,12.77
2023-01-05T19:56:55.036Z,12.94
2023-01-05T19:59:33.675Z,12.74
2023-01-05T20:02:03.064Z,12.81
2023-01-05T20:04:33.025Z,12.77
2023-01-05T20:07:04.134Z,12.71
2023-01-05T20:09:34.159Z,12.73
2023-01-05T20:12:13.730Z,12.78
2023-01-05T20:14:43.292Z,12.86
2023-01-05T20:17:12.905Z,12.81
2023-01-05T20:19:41.440Z,12.65
2023-01-05T20:22:15.688Z,12.49
2023-01-05T20:24:44.136Z,12.44
2023-01-05T20:27:14.561Z,12.43
2023-01-05T20:29:44.243Z,12.60
2023-01-05T20:32:13.887Z,12.62
2023-01-05T20:34:45.211Z,12.61
2023-01-05T20:37:14.573Z,12.59
2023-01-05T20:39:42.949Z,12.67
2023-01-05T20:42:11.993Z,12.67
2023-01-05T20:44:44.457Z,12.63
2023-01-05T20:47:13.850Z,12.62
2023-01-05T20:49:44.728Z,12.65
2023-01-05T20:52:15.741Z,12.46
2023-01-05T20:54:44.183Z,12.54
2023-01-05T20:57:12.769Z,12.42
2023-01-05T20:59:42.376Z,12.46
2023-01-05T21:02:23.713Z,12.34
2023-01-05T21:04:53.508Z,12.31
2023-01-05T21:07:22.839Z,12.39
2023-01-05T21:09:52.079Z,12.36
2023-01-05T21:12:20.799Z,12.51
2023-01-05T21:14:49.073Z,12.37
2023-01-05T21:17:17.226Z,12.62
2023-01-05T21:19:46.574Z,12.06
2023-01-05T21:22:14.642Z,11.72
2023-01-05T21:24:42.994Z,11.58
2023-01-05T21:27:11.245Z,11.74
2023-01-05T21:29:39.515Z,11.57
2023-01-05T21:32:07.436Z,11.58
2023-01-05T21:34:35.693Z,11.48
2023-01-05T21:37:03.658Z,11.87
2023-01-05T21:39:31.972Z,11.88
2023-01-05T21:42:18.389Z,12.15
2023-01-05T21:44:46.682Z,12.09
2023-01-05T21:47:14.674Z,12.10
2023-01-05T21:49:42.852Z,11.78
2023-01-05T21:52:29.817Z,11.88
2023-01-05T21:55:33.246Z,12.02
2023-01-05T21:58:02.918Z,12.02
2023-01-05T22:00:31.314Z,12.04
2023-01-05T22:02:59.325Z,12.16
2023-01-05T22:05:28.774Z,12.04
2023-01-05T22:07:56.874Z,12.33
2023-01-05T22:10:25.156Z,12.39
2023-01-05T22:12:54.956Z,12.29
2023-01-05T22:15:25.985Z,12.44
2023-01-05T22:17:54.495Z,12.33
2023-01-05T22:20:22.762Z,12.24
2023-01-05T22:22:50.773Z,12.29
2023-01-05T22:25:19.114Z,11.97
2023-01-05T22:27:47.308Z,11.98
2023-01-05T22:30:15.714Z,12.03
2023-01-05T22:32:43.652Z,11.93
2023-01-05T22:35:12.885Z,12.10
2023-01-05T22:37:40.904Z,12.10
2023-01-05T22:40:09.839Z,12.13
2023-01-05T22:42:38.843Z,12.11
2023-01-05T22:45:07.552Z,11.93
2023-01-05T22:47:35.374Z,12.11
2023-01-05T22:50:06.838Z,11.96
2023-01-05T22:52:34.723Z,11.88
2023-01-05T22:55:03.199Z,12.11
2023-01-05T22:57:31.245Z,12.29
2023-01-05T22:59:59.884Z,12.15
2023-01-05T23:02:27.902Z,12.08
2023-01-05T23:04:56.407Z,12.03
2023-01-05T23:07:24.541Z,12.18
2023-01-05T23:09:52.783Z,12.18
2023-01-05T23:12:20.649Z,11.86
2023-01-05T23:14:49.555Z,12.12
2023-01-05T23:17:17.462Z,11.89
2023-01-05T23:19:45.712Z,11.98
2023-01-05T23:22:13.638Z,11.80
2023-01-05T23:24:42.190Z,11.73
2023-01-05T23:27:10.836Z,11.87
2023-01-05T23:29:39.147Z,12.06
2023-01-05T23:32:07.805Z,11.74
2023-01-05T23:34:36.109Z,11.64
2023-01-05T23:37:04.044Z,11.61
2023-01-05T23:39:33.516Z,11.50
2023-01-05T23:42:02.134Z,11.57
2023-01-05T23:44:30.943Z,11.52
2023-01-05T23:46:58.753Z,11.42
2023-01-05T23:49:29.827Z,11.65
2023-01-05T23:51:57.903Z,11.50
2023-01-05T23:54:26.187Z,11.69
2023-01-05T23:56:54.146Z,11.56
2023-01-05T23:59:22.423Z,11.62
